• vieta
  • image
  • image
  • image
mod_vvisit_countermod_vvisit_countermod_vvisit_countermod_vvisit_countermod_vvisit_countermod_vvisit_countermod_vvisit_counter
mod_vvisit_counterŠiandien123
mod_vvisit_counterVakar311
mod_vvisit_counterŠią savaitę1330
mod_vvisit_counterPraėjusią savaitę4842
mod_vvisit_counterŠį mėnesį12898
mod_vvisit_counterPraėjusį mėnesį22275
mod_vvisit_counterViso1021130

Mes turime: 32 svečius, 1 bots online
Jūsų IP: 54.145.17.37
 , 
Šiandien: Lap 21, 2018
Oro uostas / Naujienos / 2012 Lapkritis

2012 Lapkritis

2012 m. lapkričio 15-17 dienomis Stambule (Turkija) vyko šeštoji „Logitrans 2012“ transporto ir logistikos paroda, kurioje susirinko transporto ir logistikos sektorių atstovai tam, kad sustiprintų verslo santykius, suburtų eksponentus bei potencialius partnerius, įgytų naujų partnerių, praplėstų akiratį bei vystytų perspektyvias verslo idėjas. Parodą aplankė daugiau nei 12 600 dalyvių iš 53 šalių. Joje dalyvavo logistikos operatoriai, intermodaliniai/jungtiniai vežėjai, kelių transporto įmonės, oro linijų bendrovės, oro uostų operatoriai, ekspeditoriai ir kt.

T01T06
Iš viso 194 kompanijų iš 16 šalių pateikė savo produktus ir paslaugas. Pirmą kartą parodoje dalyvavo eksponentai iš Indijos, Jordanijos, Naujosios Zelandijos, Švedijos ir Slovėnijos. Pagrindinės 5 šalys dalyvės buvo Turkija, Vokietija, Italija, Austrija ir Latvija. Svarbiausios temos parodoje buvo Turkijos rinkos logistikostinklosu Europa kūrimas ir pokyčiai Turkijos transporto sektoriuje.

T02T03
Siekdami sustiprinti esamus ryšius su Turkijos oro transporto bendrovėmis bei užmegzti naujusryšius su galimais potencialiais verslo partneriais, parodoje lankėsi ir Savivaldybės įmonės Šiaulių oro uosto atstovai, kurie susitiko su tokiomis Turkijos krovinių oro linijų bendrovėmis, kaip „ACT Airlines INC“, „ULS Airlines Cargo“, nacionaliniu oro vežėju „Turkish Airlines“, oro linijų pardavimų ir paslaugų teikimo bendrove „Airmark Airline Marketing & Services“ bei aptarė bendradarbiavimo klausimus. Tikimasi, kad dalyvavimas parodoje ir tête-à-tête susitikimai duos Šiaulių oro uostui apčiuopiamos naudos plečiant eksporto ir importo apimtis Šiaulių regione.

T04T05
Šiaulių oro uostas krovinių gabenimo srityje su Turkija bendradarbiauja nuo 2012 m. gegužės mėnesio, kai iš Stambulo pradėtos gabenti pramoninės prekės į Šiaulių oro uostą, kurios vėliau antžeminiu transportu paskirstomos įvairiomis kryptimis. 

Šiandien

Trečiadienis, 21 Lapkritis 2018

Orų prognozė aviacijai

[source: ADDS]
METAR
EYSA 210320Z 04004KT 010V080 9999 OVC006 M03/M03 Q1030 R14L/09//95 YLO1 NOSIG =
TAF EYSA 210205Z 2103/2112 VRB05KT 5000 BR OVC005 TEMPO 2103/2106 3000 BECMG 2106/2107 9000 BKN040
TAF
TAF EYSA 210205Z 2103/2112 VRB05KT 5000 BR OVC005 TEMPO 2103/2106 3000 BECMG 2106/2107 9000 BKN040 =
SR / SS: 06:12 / 14:15 UTC (EYSA 2018-11-21)

Paieška

Lankytojai

Mes turime 32 svečius online

tic logo lt